Time;durP1;ratioP1;P1;durP2;ratioP2;P2;SDS_P1;SDS_P2;PMS_P1;PMS_P2;Temp;Humidity;BMP_temperature;BMP_pressure;BME280_temperature;BME280_humidity;BME280_pressure;Samples;Min_cycle;Max_cycle;Signal;HPM_P1;HPM_P2
2021/03/17 00:01:49;;;;;;;5.73;1.20;;;;;;;4.02;100.00;101486.78;4989949;28;20247;-69
2021/03/17 00:04:33;;;;;;;3.27;1.40;;;;;;;3.98;100.00;101492.81;4994907;28;20189;-69
2021/03/17 00:07:18;;;;;;;3.87;1.60;;;;;;;3.91;100.00;101497.34;4994744;28;20494;-69
2021/03/17 00:10:05;;;;;;;3.63;1.30;;;;;;;3.95;100.00;101495.91;4993528;28;20204;-69
2021/03/17 00:12:50;;;;;;;2.80;1.20;;;;;;;3.93;100.00;101489.91;4984666;28;20809;-70
2021/03/17 00:15:38;;;;;;;5.53;1.60;;;;;;;3.94;100.00;101489.69;4995149;28;20244;-69
2021/03/17 00:18:23;;;;;;;6.97;1.43;;;;;;;3.99;100.00;101489.06;4991790;28;20224;-69
2021/03/17 00:21:07;;;;;;;7.80;1.57;;;;;;;4.13;100.00;101488.00;4990604;28;20252;-69
2021/03/17 00:23:55;;;;;;;4.03;1.40;;;;;;;3.89;100.00;101499.44;4990904;28;20678;-69
2021/03/17 00:26:40;;;;;;;6.10;1.50;;;;;;;3.91;100.00;101494.66;4989959;28;20220;-69
2021/03/17 00:29:26;;;;;;;5.87;1.83;;;;;;;4.10;100.00;101491.94;4971127;28;20312;-69
2021/03/17 00:32:10;;;;;;;4.57;1.40;;;;;;;3.85;100.00;101501.69;4955683;28;20288;-70
2021/03/17 00:34:54;;;;;;;6.10;1.57;;;;;;;3.95;100.00;101491.34;4972493;28;20631;-70
2021/03/17 00:37:38;;;;;;;5.33;1.40;;;;;;;3.80;100.00;101495.28;4971146;28;20605;-68
2021/03/17 00:40:22;;;;;;;7.00;1.60;;;;;;;3.94;100.00;101499.63;4950519;28;20189;-69
2021/03/17 00:43:07;;;;;;;4.10;1.50;;;;;;;3.82;100.00;101495.91;4975590;28;20239;-69
2021/03/17 00:45:50;;;;;;;4.47;1.43;;;;;;;3.93;100.00;101487.22;4975989;28;20236;-68
2021/03/17 00:48:21;;;;;;;6.07;1.50;;;;;;;4.00;100.00;101488.03;4958185;28;20267;-68
2021/03/17 00:50:57;;;;;;;5.90;1.50;;;;;;;4.05;100.00;101494.44;4973546;28;20228;-68
2021/03/17 00:53:26;;;;;;;3.63;1.30;;;;;;;3.96;100.00;101492.19;4973473;28;20249;-67
2021/03/17 00:55:55;;;;;;;4.63;1.30;;;;;;;3.94;100.00;101494.25;4988850;28;20441;-67
2021/03/17 00:58:30;;;;;;;3.80;1.30;;;;;;;3.76;100.00;101495.94;4989941;28;20212;-68
2021/03/17 01:01:00;;;;;;;3.80;1.37;;;;;;;4.00;100.00;101491.53;4992607;28;20221;-70
2021/03/17 01:03:26;;;;;;;3.47;1.10;;;;;;;3.78;100.00;101493.88;4975761;28;20178;-70
2021/03/17 01:05:51;;;;;;;4.83;1.77;;;;;;;3.82;100.00;101497.78;4992210;28;20252;-69
2021/03/17 01:08:17;;;;;;;5.10;1.70;;;;;;;3.90;100.00;101493.00;4977090;28;20206;-70
2021/03/17 01:10:44;;;;;;;6.13;1.77;;;;;;;3.73;100.00;101497.16;4975945;28;20225;-70
2021/03/17 01:13:10;;;;;;;5.57;1.40;;;;;;;3.91;100.00;101503.53;4992292;28;20210;-67
2021/03/17 01:15:38;;;;;;;3.17;1.20;;;;;;;3.83;100.00;101493.03;4976451;28;20217;-68
2021/03/17 01:18:04;;;;;;;6.50;1.60;;;;;;;3.76;100.00;101496.75;4992926;28;20206;-68
2021/03/17 01:20:30;;;;;;;9.60;1.40;;;;;;;3.86;100.00;101502.50;4992277;28;20619;-71
2021/03/17 01:22:56;;;;;;;3.33;1.23;;;;;;;3.66;100.00;101506.25;4975461;28;20276;-67
2021/03/17 01:25:37;;;;;;;4.17;1.17;;;;;;;3.93;100.00;101497.97;4991852;28;20276;-67
2021/03/17 01:28:04;;;;;;;4.43;1.40;;;;;;;3.89;100.00;101488.69;4973117;28;20206;-67
2021/03/17 01:30:37;;;;;;;4.93;1.30;;;;;;;3.64;100.00;101495.72;4972565;28;20680;-69
2021/03/17 01:33:03;;;;;;;5.33;1.40;;;;;;;3.50;100.00;101496.75;4956830;28;20718;-67
2021/03/17 01:35:32;;;;;;;3.00;1.13;;;;;;;3.62;100.00;101500.47;4956520;28;20269;-71
2021/03/17 01:37:58;;;;;;;3.23;1.20;;;;;;;3.81;100.00;101504.19;4973240;28;20195;-68
2021/03/17 01:40:28;;;;;;;5.47;1.97;;;;;;;3.91;100.00;101500.03;4941452;28;20230;-68
2021/03/17 01:42:53;;;;;;;4.83;1.50;;;;;;;3.88;100.00;101505.81;4956316;28;20185;-69
2021/03/17 01:45:19;;;;;;;3.23;1.20;;;;;;;3.88;100.00;101495.06;4974404;28;20190;-69
2021/03/17 01:47:45;;;;;;;3.50;1.10;;;;;;;3.62;100.00;101500.47;4958098;28;20174;-69
2021/03/17 01:50:13;;;;;;;3.90;1.10;;;;;;;3.48;100.00;101498.81;4940555;28;20190;-68
2021/03/17 01:52:41;;;;;;;6.03;1.90;;;;;;;3.64;100.00;101498.41;4956300;28;20190;-68
2021/03/17 01:55:09;;;;;;;5.37;1.27;;;;;;;3.54;100.00;101498.00;4956573;28;20301;-68
2021/03/17 01:57:35;;;;;;;7.53;1.40;;;;;;;3.37;100.00;101495.94;4975594;28;20202;-68
2021/03/17 02:00:02;;;;;;;6.77;1.40;;;;;;;3.44;100.00;101502.97;4975542;28;20244;-69
2021/03/17 02:02:40;;;;;;;4.63;1.23;;;;;;;3.38;100.00;101502.13;4991519;28;20277;-67
2021/03/17 02:05:09;;;;;;;4.10;1.30;;;;;;;3.53;100.00;101501.69;4976058;28;20193;-68
2021/03/17 02:07:34;;;;;;;5.77;1.23;;;;;;;3.52;100.00;101500.06;4959860;28;20185;-68
2021/03/17 02:10:05;;;;;;;4.40;1.27;;;;;;;3.30;100.00;101502.34;4991733;28;20201;-68
2021/03/17 02:13:03;;;;;;;5.23;1.30;;;;;;;3.20;100.00;101504.56;4975414;28;20320;-67
2021/03/17 02:15:44;;;;;;;6.40;1.57;;;;;;;3.16;100.00;101503.31;4970036;28;20233;-68
2021/03/17 02:18:17;;;;;;;3.63;1.10;;;;;;;3.28;100.00;101501.69;4991146;28;20224;-67
2021/03/17 02:21:12;;;;;;;6.20;1.10;;;;;;;3.30;100.00;101497.78;4975501;28;20226;-68
2021/03/17 02:24:19;;;;;;;5.33;1.67;;;;;;;3.19;100.00;101497.56;4975192;28;20198;-69
2021/03/17 02:27:07;;;;;;;3.93;1.40;;;;;;;3.07;100.00;101499.19;4990194;28;20221;-68
2021/03/17 02:29:59;;;;;;;4.70;1.50;;;;;;;3.08;100.00;101501.66;4972389;28;20210;-68
2021/03/17 02:32:51;;;;;;;5.40;1.30;;;;;;;3.13;100.00;101499.22;4987052;28;20241;-68
2021/03/17 02:35:18;;;;;;;3.87;1.23;;;;;;;3.30;100.00;101500.47;4954205;28;20325;-69
2021/03/17 02:37:45;;;;;;;4.00;1.30;;;;;;;3.25;100.00;101496.75;4956348;28;20664;-69
2021/03/17 02:40:13;;;;;;;3.23;1.40;;;;;;;3.36;100.00;101499.63;4956719;28;20605;-68
2021/03/17 02:43:03;;;;;;;5.47;1.53;;;;;;;3.35;100.00;101492.63;4971028;28;20193;-68
2021/03/17 02:45:31;;;;;;;3.70;1.37;;;;;;;3.19;100.00;101498.38;4971377;28;20710;-68
2021/03/17 02:48:15;;;;;;;5.80;1.60;;;;;;;3.24;100.00;101489.72;4971974;28;20252;-68
2021/03/17 02:50:42;;;;;;;4.73;1.50;;;;;;;3.09;100.00;101489.06;4972215;28;20217;-68
2021/03/17 02:53:14;;;;;;;3.67;1.30;;;;;;;3.14;100.00;101489.28;4972389;28;20675;-68
2021/03/17 02:55:50;;;;;;;3.57;1.43;;;;;;;3.44;100.00;101489.53;5005459;28;20221;-68
2021/03/17 02:58:16;;;;;;;3.47;1.47;;;;;;;3.40;100.00;101489.31;4974744;28;20863;-68
2021/03/17 03:00:42;;;;;;;4.10;1.50;;;;;;;3.43;100.00;101490.56;4958537;28;20252;-68
2021/03/17 03:03:07;;;;;;;5.53;1.60;;;;;;;3.20;100.00;101485.78;4990372;28;20189;-68
2021/03/17 03:05:33;;;;;;;3.43;1.50;;;;;;;3.13;100.00;101491.16;4990275;28;20616;-68
2021/03/17 03:07:59;;;;;;;3.67;1.47;;;;;;;3.12;100.00;101491.34;4975128;28;20264;-68
2021/03/17 03:10:28;;;;;;;5.60;1.50;;;;;;;3.26;100.00;101495.69;4990013;28;20186;-69
2021/03/17 03:12:53;;;;;;;4.90;1.43;;;;;;;3.51;100.00;101497.56;4957702;28;20194;-68
2021/03/17 03:15:19;;;;;;;8.90;1.50;;;;;;;3.39;100.00;101504.59;4974161;28;20353;-68
2021/03/17 03:17:45;;;;;;;3.53;1.40;;;;;;;3.26;100.00;101499.22;4974751;28;20209;-69
2021/03/17 03:20:15;;;;;;;3.23;1.50;;;;;;;3.46;100.00;101495.53;4974153;28;20189;-68
2021/03/17 03:22:43;;;;;;;3.77;1.73;;;;;;;3.28;100.00;101507.91;4957003;28;20182;-69
2021/03/17 03:25:11;;;;;;;3.07;1.40;;;;;;;3.25;100.00;101504.78;4973864;28;20208;-68
2021/03/17 03:27:36;;;;;;;4.00;1.60;;;;;;;3.39;100.00;101495.69;4991464;28;20189;-68
2021/03/17 03:30:17;;;;;;;6.20;1.67;;;;;;;3.20;100.00;101499.19;4973611;28;20686;-68
2021/03/17 03:32:43;;;;;;;5.63;1.60;;;;;;;3.40;100.00;101500.06;4973948;28;20217;-69
2021/03/17 03:35:12;;;;;;;5.30;1.40;;;;;;;3.26;100.00;101506.44;4990064;28;20212;-68
2021/03/17 03:37:39;;;;;;;3.40;1.37;;;;;;;3.46;100.00;101508.94;4974305;28;20196;-68
2021/03/17 03:40:10;;;;;;;6.03;1.63;;;;;;;3.47;100.00;101507.91;4974842;28;20181;-68
2021/03/17 03:42:35;;;;;;;8.20;1.63;;;;;;;3.36;100.00;101509.56;4973260;28;20247;-69
2021/03/17 03:45:02;;;;;;;4.47;1.60;;;;;;;3.46;100.00;101513.47;4974155;28;20205;-70
2021/03/17 03:47:28;;;;;;;4.10;1.40;;;;;;;3.34;100.00;101504.38;4989840;28;20206;-69
2021/03/17 03:49:53;;;;;;;4.40;1.60;;;;;;;3.57;100.00;101508.34;4973926;28;20623;-70
2021/03/17 03:52:25;;;;;;;4.13;1.40;;;;;;;3.33;100.00;101509.97;4972805;28;20832;-70
2021/03/17 03:55:23;;;;;;;5.87;1.80;;;;;;;3.25;100.00;101502.94;4973610;28;20210;-67
2021/03/17 03:57:49;;;;;;;5.37;1.60;;;;;;;3.40;100.00;101500.88;4966721;28;20300;-69
2021/03/17 04:00:22;;;;;;;3.80;1.33;;;;;;;3.43;100.00;101506.66;4990147;28;20181;-69
2021/03/17 04:02:50;;;;;;;4.87;1.50;;;;;;;3.52;100.00;101516.16;4972789;28;20228;-70
2021/03/17 04:05:20;;;;;;;2.73;1.30;;;;;;;3.42;100.00;101509.53;4974438;28;20174;-70
2021/03/17 04:07:48;;;;;;;4.63;1.50;;;;;;;3.51;100.00;101519.06;4959179;28;20182;-68
2021/03/17 04:10:14;;;;;;;6.40;1.70;;;;;;;3.50;100.00;101514.75;4952164;28;20739;-68
2021/03/17 04:12:40;;;;;;;3.63;1.37;;;;;;;3.76;100.00;101512.06;4957608;28;20193;-70
2021/03/17 04:15:08;;;;;;;6.10;1.50;;;;;;;3.62;100.00;101521.13;4971399;28;20672;-69
2021/03/17 04:17:37;;;;;;;6.73;1.83;;;;;;;3.44;100.00;101519.06;4958355;28;20245;-71
2021/03/17 04:20:17;;;;;;;5.13;1.60;;;;;;;3.25;100.00;101510.97;4974426;28;20599;-71
2021/03/17 04:22:43;;;;;;;4.97;1.60;;;;;;;3.24;100.00;101511.19;4990078;28;20316;-70
2021/03/17 04:25:09;;;;;;;9.30;2.20;;;;;;;3.58;100.00;101504.59;4972124;28;20670;-71
2021/03/17 04:27:35;;;;;;;6.83;1.80;;;;;;;3.49;100.00;101516.56;4956852;28;20201;-69
2021/03/17 04:30:01;;;;;;;5.63;2.20;;;;;;;3.53;100.00;101517.81;4970187;28;20214;-69
2021/03/17 04:32:30;;;;;;;6.77;1.77;;;;;;;3.45;100.00;101523.38;4968818;28;20318;-70
2021/03/17 04:34:56;;;;;;;6.60;2.00;;;;;;;3.44;100.00;101519.06;4957201;28;20218;-66
2021/03/17 04:37:23;;;;;;;5.27;1.50;;;;;;;3.45;100.00;101512.66;4973788;28;20232;-70
2021/03/17 04:39:53;;;;;;;6.87;2.20;;;;;;;3.39;100.00;101517.19;4958015;28;20198;-69
2021/03/17 04:42:21;;;;;;;4.70;1.60;;;;;;;3.41;100.00;101515.13;4956684;28;20237;-69
2021/03/17 04:44:47;;;;;;;5.17;1.83;;;;;;;3.19;100.00;101516.34;4961487;28;20188;-69
2021/03/17 04:47:12;;;;;;;6.47;1.90;;;;;;;3.12;100.00;101518.19;4960937;28;20217;-70
2021/03/17 04:49:44;;;;;;;7.27;1.90;;;;;;;2.99;100.00;101520.84;4957624;28;20235;-70
2021/03/17 04:52:13;;;;;;;6.07;2.03;;;;;;;2.79;100.00;101527.16;4959401;28;20232;-68
2021/03/17 04:54:39;;;;;;;4.47;1.70;;;;;;;2.72;100.00;101527.13;4976291;28;20676;-70
2021/03/17 04:57:07;;;;;;;8.73;1.90;;;;;;;2.68;100.00;101525.06;4968477;28;20301;-69
2021/03/17 04:59:35;;;;;;;6.63;1.97;;;;;;;2.73;100.00;101527.97;4969734;28;20247;-70
2021/03/17 05:02:03;;;;;;;4.20;1.60;;;;;;;2.74;100.00;101530.44;4990929;28;20229;-69
2021/03/17 05:04:30;;;;;;;4.17;1.83;;;;;;;2.82;100.00;101538.31;4960542;28;20263;-71
2021/03/17 05:06:56;;;;;;;4.73;1.77;;;;;;;2.60;100.00;101537.81;4992726;28;20229;-69
2021/03/17 05:09:21;;;;;;;10.30;2.00;;;;;;;2.64;100.00;101547.09;4976682;28;20806;-70
2021/03/17 05:11:50;;;;;;;4.87;1.60;;;;;;;2.43;100.00;101541.84;4959384;28;20244;-68
2021/03/17 05:14:15;;;;;;;9.33;2.03;;;;;;;2.34;100.00;101535.00;4960692;28;20257;-70
2021/03/17 05:16:41;;;;;;;4.67;2.00;;;;;;;2.40;100.00;101536.88;4992247;28;20229;-69
2021/03/17 05:19:06;;;;;;;7.33;2.07;;;;;;;2.25;100.00;101543.41;4992662;28;20240;-69
2021/03/17 05:21:32;;;;;;;5.67;2.33;;;;;;;2.11;100.00;101542.50;4960027;28;21014;-68
2021/03/17 05:23:58;;;;;;;7.07;2.30;;;;;;;2.16;100.00;101540.06;4959706;28;20230;-68
2021/03/17 05:26:24;;;;;;;5.27;1.90;;;;;;;2.03;100.00;101542.66;4975995;28;20806;-68
2021/03/17 05:28:50;;;;;;;6.63;2.37;;;;;;;1.95;100.00;101545.47;4976668;28;20209;-68
2021/03/17 05:31:18;;;;;;;10.43;2.30;;;;;;;1.94;100.00;101546.50;4993404;28;20710;-68
2021/03/17 05:33:44;;;;;;;6.43;2.33;;;;;;;1.91;100.00;101542.56;4959757;28;20217;-69
2021/03/17 05:36:10;;;;;;;7.57;2.20;;;;;;;1.82;100.00;101551.75;4976055;28;20658;-70
2021/03/17 05:38:35;;;;;;;13.03;6.73;;;;;;;1.75;100.00;101550.88;4994748;28;20707;-70
2021/03/17 05:41:01;;;;;;;7.10;4.40;;;;;;;1.71;100.00;101544.25;4982601;28;20217;-67
2021/03/17 05:43:26;;;;;;;7.10;3.33;;;;;;;1.94;100.00;101556.38;4993724;28;20193;-69
2021/03/17 05:45:52;;;;;;;3.63;2.40;;;;;;;1.76;100.00;101558.72;4992014;28;20229;-69
2021/03/17 05:48:18;;;;;;;5.53;1.87;;;;;;;1.75;100.00;101558.91;4976974;28;20205;-69
2021/03/17 05:50:43;;;;;;;6.10;2.00;;;;;;;1.71;100.00;101560.31;4992235;28;20233;-69
2021/03/17 05:53:09;;;;;;;6.97;2.10;;;;;;;1.71;100.00;101565.66;4991946;28;20197;-69
2021/03/17 05:55:36;;;;;;;5.33;1.87;;;;;;;1.67;100.00;101559.88;4975186;28;20304;-69
2021/03/17 05:58:03;;;;;;;9.17;2.10;;;;;;;1.54;100.00;101567.78;4973334;28;20699;-68
2021/03/17 06:00:29;;;;;;;8.57;2.17;;;;;;;1.49;100.00;101561.34;4973947;28;20191;-69
2021/03/17 06:02:55;;;;;;;4.27;1.90;;;;;;;1.64;100.00;101559.44;4973535;28;20248;-69
2021/03/17 06:05:21;;;;;;;9.27;2.17;;;;;;;1.74;100.00;101570.63;4989339;28;20185;-69
2021/03/17 06:08:08;;;;;;;5.70;2.60;;;;;;;1.74;100.00;101573.28;4973286;28;20741;-68
2021/03/17 06:10:37;;;;;;;4.20;1.83;;;;;;;1.65;100.00;101572.63;4972123;28;20225;-69
2021/03/17 06:13:13;;;;;;;5.10;1.90;;;;;;;1.66;100.00;101573.44;4976420;28;20224;-68
2021/03/17 06:15:43;;;;;;;31.57;19.20;;;;;;;1.63;100.00;101576.50;4985652;28;20735;-68
2021/03/17 06:18:16;;;;;;;14.97;7.20;;;;;;;1.69;100.00;101578.44;4980638;28;20603;-68
2021/03/17 06:20:43;;;;;;;4.37;2.23;;;;;;;1.66;100.00;101573.44;4995326;28;20224;-68
2021/03/17 06:23:09;;;;;;;6.20;2.33;;;;;;;1.73;100.00;101579.69;4978591;28;20247;-67
2021/03/17 06:25:34;;;;;;;3.50;1.83;;;;;;;1.79;100.00;101578.91;4992562;28;20232;-68
2021/03/17 06:28:01;;;;;;;3.80;2.00;;;;;;;1.86;100.00;101582.47;4959843;28;20205;-68
2021/03/17 06:30:26;;;;;;;3.93;2.10;;;;;;;1.93;100.00;101571.63;4970301;28;20304;-68
2021/03/17 06:32:52;;;;;;;7.47;3.07;;;;;;;2.07;100.00;101577.88;4947080;28;20711;-68
2021/03/17 06:35:24;;;;;;;5.77;2.60;;;;;;;2.10;100.00;101577.50;4982398;28;20588;-68
2021/03/17 06:37:52;;;;;;;6.47;3.07;;;;;;;2.46;100.00;101579.81;4975813;28;20190;-68
2021/03/17 06:40:30;;;;;;;5.40;2.60;;;;;;;2.74;100.00;101573.34;4972154;28;20202;-67
2021/03/17 06:43:11;;;;;;;4.17;2.70;;;;;;;2.99;100.00;101563.75;4984755;28;20236;-67
2021/03/17 06:45:37;;;;;;;5.23;3.07;;;;;;;3.14;100.00;101567.09;4960584;28;20244;-68
2021/03/17 06:48:27;;;;;;;8.33;3.60;;;;;;;3.11;100.00;101564.81;4959577;28;20263;-68
2021/03/17 06:51:14;;;;;;;8.23;2.67;;;;;;;2.94;100.00;101568.06;4975272;28;20225;-67
2021/03/17 06:53:44;;;;;;;3.57;2.40;;;;;;;3.32;100.00;101567.38;4991193;28;20256;-68
2021/03/17 06:56:14;;;;;;;4.13;1.90;;;;;;;3.44;100.00;101572.75;4970705;28;20604;-70
2021/03/17 06:59:02;;;;;;;3.87;1.90;;;;;;;3.38;100.00;101572.75;4972024;28;20297;-69
2021/03/17 07:01:36;;;;;;;7.00;2.33;;;;;;;3.49;100.00;101578.31;5004542;28;20277;-69
2021/03/17 07:04:06;;;;;;;4.10;1.70;;;;;;;3.40;100.00;101577.91;4988071;28;20186;-66
2021/03/17 07:06:33;;;;;;;6.47;1.80;;;;;;;3.70;100.00;101578.16;4956655;28;20238;-71
2021/03/17 07:09:12;;;;;;;3.57;1.60;;;;;;;3.82;100.00;101573.81;4956169;28;20859;-69
2021/03/17 07:11:38;;;;;;;6.73;3.57;;;;;;;3.66;100.00;101576.91;4971486;28;20334;-70
2021/03/17 07:14:06;;;;;;;4.87;1.80;;;;;;;3.88;100.00;101586.41;4940113;28;20301;-69
2021/03/17 07:16:44;;;;;;;7.10;1.67;;;;;;;3.81;100.00;101579.38;4987626;28;20310;-69
2021/03/17 07:19:09;;;;;;;4.53;1.50;;;;;;;4.12;100.00;101583.09;4942292;28;20214;-69
2021/03/17 07:21:38;;;;;;;4.17;2.00;;;;;;;3.83;100.00;101579.00;4955425;28;20225;-70
2021/03/17 07:24:07;;;;;;;5.90;1.90;;;;;;;4.00;100.00;101582.09;4940611;28;20525;-69
2021/03/17 07:26:34;;;;;;;4.67;1.80;;;;;;;4.00;100.00;101584.78;4986358;28;20222;-72
2021/03/17 07:29:05;;;;;;;4.87;1.53;;;;;;;4.26;100.00;101585.56;4952168;28;20207;-70
2021/03/17 07:31:37;;;;;;;5.73;2.17;;;;;;;4.32;97.48;101596.34;4958373;28;20304;-67
2021/03/17 07:34:14;;;;;;;6.77;1.70;;;;;;;4.26;96.75;101588.25;4989825;28;20637;-67
2021/03/17 07:36:59;;;;;;;5.53;1.40;;;;;;;4.38;97.87;101595.50;4974430;28;20733;-68
2021/03/17 07:39:31;;;;;;;4.90;1.50;;;;;;;4.46;95.46;101587.19;4975839;28;20240;-68
2021/03/17 07:41:58;;;;;;;2.77;1.20;;;;;;;4.43;93.70;101587.63;4990408;28;20229;-66
2021/03/17 07:44:27;;;;;;;5.40;1.53;;;;;;;4.51;92.57;101584.72;4976054;28;20229;-68
2021/03/17 07:46:54;;;;;;;4.33;1.30;;;;;;;4.57;91.68;101591.94;4957217;28;20229;-67
2021/03/17 07:49:19;;;;;;;4.83;1.20;;;;;;;4.80;91.59;101585.03;4958265;28;20263;-68
2021/03/17 07:51:47;;;;;;;3.83;1.50;;;;;;;4.74;88.70;101595.81;4972250;28;20229;-67
2021/03/17 07:54:41;;;;;;;5.03;1.20;;;;;;;4.93;87.30;101581.44;4974105;28;20206;-68
2021/03/17 07:57:07;;;;;;;4.30;1.20;;;;;;;4.88;88.33;101590.19;4987747;28;20225;-69
2021/03/17 07:59:36;;;;;;;5.20;1.27;;;;;;;4.90;87.87;101600.72;4989859;28;20244;-68
2021/03/17 08:02:04;;;;;;;4.57;1.50;;;;;;;4.92;87.85;101599.47;4988464;28;20271;-68
2021/03/17 08:04:33;;;;;;;2.20;1.20;;;;;;;4.98;87.01;101602.16;4988789;28;20255;-67
2021/03/17 08:07:01;;;;;;;6.47;1.40;;;;;;;4.99;85.50;101601.09;4990792;28;20222;-69
2021/03/17 08:09:34;;;;;;;2.50;1.13;;;;;;;5.08;87.33;101605.22;4959123;28;20731;-69
2021/03/17 08:12:07;;;;;;;5.33;1.43;;;;;;;4.98;89.32;101610.22;4988746;28;20253;-69
2021/03/17 08:14:33;;;;;;;5.17;1.40;;;;;;;5.08;89.11;101607.91;4974467;28;20680;-69
2021/03/17 08:17:03;;;;;;;4.03;1.80;;;;;;;4.97;87.69;101605.06;4957916;28;20680;-68
2021/03/17 08:19:29;;;;;;;4.80;2.07;;;;;;;4.92;88.95;101609.41;4957890;28;20704;-66
2021/03/17 08:22:06;;;;;;;6.17;2.37;;;;;;;5.04;89.30;101606.69;4989378;28;20320;-69
2021/03/17 08:24:38;;;;;;;5.97;1.93;;;;;;;5.42;89.37;101610.19;4974021;28;20177;-67
2021/03/17 08:27:09;;;;;;;4.90;1.90;;;;;;;5.09;87.70;101616.78;4988871;28;20221;-68
2021/03/17 08:29:45;;;;;;;6.37;2.20;;;;;;;5.21;87.05;101610.53;4990783;28;20559;-69
2021/03/17 08:32:15;;;;;;;5.10;1.70;;;;;;;5.09;88.39;101620.34;4972081;28;20239;-68
2021/03/17 08:34:41;;;;;;;4.07;1.57;;;;;;;5.25;85.06;101603.66;4989568;28;20221;-68
2021/03/17 08:37:10;;;;;;;5.07;1.57;;;;;;;5.26;84.97;101607.22;4972532;28;20275;-69
2021/03/17 08:39:40;;;;;;;3.07;1.40;;;;;;;5.33;83.43;101608.84;4973246;28;20267;-68
2021/03/17 08:42:25;;;;;;;5.13;1.70;;;;;;;5.45;82.72;101607.09;4971762;28;20275;-68
2021/03/17 08:44:50;;;;;;;4.83;1.43;;;;;;;5.62;81.01;101613.63;4990035;28;20201;-68
2021/03/17 08:47:42;;;;;;;3.60;1.40;;;;;;;5.46;81.99;101609.56;4990185;28;20233;-68
2021/03/17 08:50:17;;;;;;;5.83;1.57;;;;;;;5.60;79.96;101615.69;4974002;28;20181;-68
2021/03/17 08:52:50;;;;;;;2.60;1.30;;;;;;;5.88;80.40;101619.72;4988606;28;20181;-68
2021/03/17 08:55:19;;;;;;;2.83;1.30;;;;;;;5.98;79.16;101618.16;4989445;28;20305;-68
2021/03/17 08:57:54;;;;;;;3.20;1.50;;;;;;;6.02;78.83;101622.06;4982395;28;20264;-68
2021/03/17 09:00:49;;;;;;;7.67;1.87;;;;;;;6.27;77.99;101614.81;4988481;28;20651;-68
2021/03/17 09:03:40;;;;;;;6.40;1.80;;;;;;;6.17;77.63;101619.88;4988928;28;20182;-68
2021/03/17 09:06:22;;;;;;;3.47;1.57;;;;;;;6.56;75.60;101613.06;4988943;28;20956;-68
2021/03/17 09:08:55;;;;;;;3.70;1.60;;;;;;;6.41;76.94;101616.31;4973178;28;20703;-69
2021/03/17 09:11:44;;;;;;;5.77;1.70;;;;;;;6.52;75.68;101614.56;4989230;28;20570;-69
2021/03/17 09:14:11;;;;;;;3.70;1.60;;;;;;;6.64;76.99;101622.75;4975903;28;20611;-70
2021/03/17 09:16:57;;;;;;;5.93;1.80;;;;;;;6.77;73.18;101625.31;4972382;28;20233;-69
2021/03/17 09:19:25;;;;;;;4.07;1.50;;;;;;;6.66;72.94;101632.25;4989868;28;20201;-68
2021/03/17 09:21:51;;;;;;;4.17;1.37;;;;;;;6.85;73.21;101625.00;4975860;28;20280;-68
2021/03/17 09:24:35;;;;;;;4.67;1.90;;;;;;;6.96;73.38;101619.72;4993113;28;20652;-68
2021/03/17 09:27:01;;;;;;;6.03;1.80;;;;;;;7.30;72.88;101631.50;4975946;28;20717;-68
2021/03/17 09:29:26;;;;;;;5.17;1.80;;;;;;;7.52;72.38;101626.44;4994067;28;20201;-69
2021/03/17 09:31:55;;;;;;;6.53;1.50;;;;;;;7.77;72.31;101636.91;4991164;28;20221;-70
2021/03/17 09:34:28;;;;;;;4.57;1.53;;;;;;;7.50;69.91;101626.69;4976548;28;20209;-70
2021/03/17 09:37:01;;;;;;;5.33;1.77;;;;;;;7.16;72.21;101629.22;4975979;28;20237;-68
2021/03/17 09:39:29;;;;;;;5.37;2.20;;;;;;;7.79;68.06;101642.09;4960684;28;20201;-69
2021/03/17 09:41:54;;;;;;;2.27;1.50;;;;;;;7.25;68.67;101643.22;4992862;28;20225;-70
2021/03/17 09:44:25;;;;;;;4.40;1.80;;;;;;;7.12;71.07;101643.38;4976400;28;20729;-68
2021/03/17 09:46:56;;;;;;;3.03;1.57;;;;;;;7.67;70.75;101647.44;4975816;28;20599;-70
2021/03/17 09:49:23;;;;;;;3.77;1.67;;;;;;;7.63;69.34;101642.72;4977338;28;20224;-68
2021/03/17 09:51:57;;;;;;;3.43;1.60;;;;;;;7.68;69.29;101640.16;4975221;28;20260;-69
2021/03/17 09:54:27;;;;;;;4.40;1.70;;;;;;;7.80;67.34;101649.13;4992166;28;20272;-68
2021/03/17 09:56:59;;;;;;;4.23;1.80;;;;;;;7.55;68.83;101645.75;4991463;28;20267;-69
2021/03/17 09:59:32;;;;;;;4.43;1.90;;;;;;;7.64;69.88;101643.53;4992693;28;20205;-68
2021/03/17 10:02:10;;;;;;;5.30;1.90;;;;;;;7.77;69.27;101646.91;4991106;28;20233;-68
2021/03/17 10:04:48;;;;;;;5.53;2.37;;;;;;;7.44;69.39;101646.50;4992352;28;20190;-69
2021/03/17 10:07:42;;;;;;;7.43;3.10;;;;;;;7.19;72.77;101660.34;4991583;28;20236;-68
2021/03/17 10:10:08;;;;;;;6.07;2.40;;;;;;;7.60;70.60;101648.59;4990388;28;20198;-68
2021/03/17 10:12:35;;;;;;;5.27;2.53;;;;;;;7.78;69.85;101662.06;4959166;28;20193;-68
2021/03/17 10:15:12;;;;;;;5.57;2.20;;;;;;;8.13;67.37;101659.28;4976459;28;20694;-69
2021/03/17 10:17:37;;;;;;;5.53;2.57;;;;;;;8.07;68.80;101657.44;4975807;28;20217;-68
2021/03/17 10:20:15;;;;;;;2.63;1.90;;;;;;;7.96;68.70;101667.41;4960054;28;20774;-69
2021/03/17 10:22:41;;;;;;;3.67;2.07;;;;;;;8.18;68.30;101662.09;4974872;28;20707;-70
2021/03/17 10:25:11;;;;;;;6.03;2.77;;;;;;;7.83;67.65;101667.59;4991287;28;20188;-69
2021/03/17 10:27:42;;;;;;;4.47;2.63;;;;;;;7.46;68.59;101676.03;4959255;28;20614;-68
2021/03/17 10:30:15;;;;;;;4.07;2.30;;;;;;;7.41;71.21;101671.28;4990547;28;20248;-69
2021/03/17 10:32:44;;;;;;;8.33;3.70;;;;;;;7.90;67.92;101665.63;4975345;28;20181;-68
2021/03/17 10:35:12;;;;;;;5.40;2.30;;;;;;;7.62;65.23;101668.13;4989749;28;20281;-68
2021/03/17 10:37:38;;;;;;;4.93;2.50;;;;;;;7.89;66.03;101669.38;4982084;28;20281;-70
2021/03/17 10:40:11;;;;;;;4.87;2.40;;;;;;;7.81;65.93;101675.13;4991286;28;20317;-68
2021/03/17 10:42:45;;;;;;;6.67;2.57;;;;;;;8.33;66.07;101670.59;4974709;28;20226;-68
2021/03/17 10:45:16;;;;;;;7.00;2.70;;;;;;;8.35;65.53;101673.91;4992224;28;20178;-68
2021/03/17 10:47:42;;;;;;;4.67;2.20;;;;;;;7.84;67.97;101672.78;4991081;28;20212;-69
2021/03/17 10:50:16;;;;;;;3.83;2.00;;;;;;;7.67;68.58;101665.53;4974616;28;20216;-68
2021/03/17 10:52:46;;;;;;;6.43;3.00;;;;;;;7.94;68.61;101672.22;4990696;28;20181;-68
2021/03/17 10:55:25;;;;;;;6.73;2.60;;;;;;;8.45;68.23;101671.44;4990712;28;20240;-69
2021/03/17 10:57:51;;;;;;;5.03;2.33;;;;;;;8.33;67.77;101667.88;4990635;28;20627;-68
2021/03/17 11:00:22;;;;;;;4.83;2.43;;;;;;;7.74;69.95;101668.97;4974606;28;20181;-68
2021/03/17 11:02:50;;;;;;;3.23;2.03;;;;;;;7.59;71.27;101665.84;4989647;28;20222;-68
2021/03/17 11:05:29;;;;;;;4.93;2.60;;;;;;;7.77;72.11;101668.53;4974194;28;20264;-69
2021/03/17 11:08:07;;;;;;;5.07;2.47;;;;;;;7.92;71.78;101668.94;4960805;28;20682;-68
2021/03/17 11:10:36;;;;;;;5.30;2.40;;;;;;;8.03;70.21;101662.75;4974814;28;20225;-68
2021/03/17 11:13:09;;;;;;;5.50;2.33;;;;;;;7.69;69.55;101658.00;4990009;28;20204;-68
2021/03/17 11:15:35;;;;;;;3.50;2.00;;;;;;;7.24;68.20;101666.72;4991324;28;20281;-68
2021/03/17 11:18:04;;;;;;;4.93;2.80;;;;;;;7.18;71.45;101675.75;4990496;28;20193;-68
2021/03/17 11:20:29;;;;;;;7.27;2.60;;;;;;;7.61;71.35;101668.34;4973943;28;20237;-68
2021/03/17 11:22:57;;;;;;;3.90;2.00;;;;;;;7.63;68.84;101658.94;4973532;28;20259;-68
2021/03/17 11:25:24;;;;;;;4.00;2.30;;;;;;;7.62;69.66;101664.56;4974257;28;20232;-69
2021/03/17 11:27:49;;;;;;;4.27;2.53;;;;;;;7.36;71.41;101665.75;4955572;28;20629;-68
2021/03/17 11:30:20;;;;;;;3.87;1.80;;;;;;;7.08;70.39;101666.50;4966915;28;20186;-69
2021/03/17 11:32:48;;;;;;;5.07;2.17;;;;;;;7.06;68.63;101665.91;4972876;28;20231;-69
2021/03/17 11:35:14;;;;;;;3.20;2.50;;;;;;;7.21;72.11;101658.25;4957410;28;20225;-68
2021/03/17 11:37:42;;;;;;;3.20;2.50;;;;;;;7.40;71.78;101658.84;4990066;28;20190;-70
2021/03/17 11:40:08;;;;;;;4.77;2.20;;;;;;;8.11;68.47;101653.28;4957997;28;20261;-68
2021/03/17 11:42:34;;;;;;;4.97;1.93;;;;;;;8.06;67.81;101661.22;4990330;28;20332;-69
2021/03/17 11:45:02;;;;;;;4.80;2.50;;;;;;;7.97;66.49;101671.78;4974375;28;20224;-69
2021/03/17 11:47:28;;;;;;;5.33;2.37;;;;;;;8.31;64.33;101650.22;4996443;28;20212;-71
2021/03/17 11:49:53;;;;;;;4.23;1.87;;;;;;;8.49;64.94;101664.50;5015387;28;20752;-69